Aviation Digital Data Service (ADDS)

Output produced by METARs form (0207 UTC 16 January 2019)
found at http://www.aviationweather.gov/metar/data/
 
EKYT 160150Z AUTO 24006KT 9000 -RA SCT022/// BKN029/// BKN034/// 04/04 Q0999
TAF EKYT 152326Z 1600/1624 27012KT 9999 SCT010 BKN070 
     TEMPO 1600/1601 4000 -RADZ BKN010 
     BECMG 1601/1603 21005KT 2500 RADZ BR BKN004 
     BECMG 1603/1605 24015KT 9000 NSW SCT008 BKN040 
     TEMPO 1605/1610 25015G25KT 4000 -RADZ BR BKN008 
     TEMPO 1610/1618 23018G28KT 4000 -RADZ BKN008 
     BECMG 1619/1620 22018G28KT 2500 RA BKN004 
     BECMG 1620/1622 29012KT 9999 NSW SCT020 
     TEMPO 1622/1624 6000 SHRA BKN008 SCT015CB
       
EKAH 160150Z AUTO 23003KT 2700NDV -RA BR OVC002/// 06/05 Q1000
TAF AMD EKAH 160119Z 1600/1624 26012KT 8000 BKN015 
     TEMPO 1602/1605 1500 -RADZ BR BKN004 
     TEMPO 1605/1612 4000 -RADZ BKN012 
     TEMPO 1620/1624 23015G28KT 4000 RA
       
EKBI 160150Z AUTO 25014KT 220V280 9000 OVC004/// 07/06 Q1001
TAF EKBI 152302Z 1600/1624 26012KT 4000 BR -RADZ BKN008 
     TEMPO 1600/1606 1500 RADZ BKN003 
     TEMPO 1606/1609 8000 NSW SCT008 BKN015 
     TEMPO 1609/1624 24018G28KT 6000 NSW BKN012
       
EKRN 160150Z AUTO 28013KT 9000 SCT031/// BKN110/// 05/04 Q1001
TAF EKRN 151738Z 1518/1523 28015KT 9999 BKN008 
     TEMPO 1518/1523 30020G30KT BKN015
       
EKEB 160150Z AUTO 24013KT 9999 OVC025/// 07/06 Q1002
TAF AMD EKEB 152052Z 1520/1523 26012KT 8000 BKN015 
     TEMPO 1520/1523 1200 BR RADZ BKN002
       
EKKA 160150Z AUTO 25012KT 3500NDV BR OVC004/// 07/07 Q1000
TAF EKKA 152318Z 1600/1624 22012KT 1500 RADZ BR BKN003 
     TEMPO 1600/1601 5000 -RADZ BKN005 
     BECMG 1601/1603 24012KT 9000 NSW SCT008 BKN040 
     TEMPO 1603/1610 24012G22KT 4000 -RADZ BR BKN008 
     TEMPO 1610/1620 23015G28KT 4000 -RADZ BKN008 
     BECMG 1620/1622 22018G28KT 2500 RA BKN005 
     BECMG 1622/1624 28015KT 9999 -SHRA SCT015CB
       
EKCH 160150Z 27011KT 9999 -RA NSC 05/03 Q1001 NOSIG
TAF EKCH 152302Z 1600/1624 27010KT 9999 BKN015 
     TEMPO 1603/1607 1500 BR RADZ BKN006 
     TEMPO 1607/1617 4000 BR -RADZ BKN008 
     TEMPO 1617/1624 23018G28KT 4000 BR -RADZ BKN010
       
EKVD 160150Z AUTO 26016KT //// ///////// 07/05 Q1002
EKRK 160150Z AUTO 28004KT 6000NDV -RA FEW012/// BKN019/// BKN025/// 05/04 Q1001
TAF EKRK 152326Z 1600/1609 27012KT 9999 BKN020 
     BECMG 1601/1603 BKN012 
     TEMPO 1603/1605 1500 RADZ BR BKN003 
     TEMPO 1605/1609 4000 BR -RADZ BKN008
       
EKSP 160150Z 26019KT 9999 SCT012 BKN045 07/05 Q1003
TAF EKSP 152318Z 1600/1624 25015KT 1800 RADZ BR BKN004 
     BECMG 1600/1601 8000 NSW SCT008 BKN040 
     TEMPO 1601/1610 24015G25KT 4000 -RADZ BR BKN008 
     TEMPO 1610/1621 23020G30KT 4000 -RADZ BKN008 
     BECMG 1621/1623 22020G35KT 2500 RA BKN005 
     BECMG 1623/1624 26018G28KT
       
EKSB 160150Z AUTO 25014KT 9999NDV OVC011/// 07/06 Q1003
TAF EKSB 151757Z 1518/1523 27010KT 9999 BKN015 
     TEMPO 1518/1523 4000 -RADZ BKN008